20:41
Airports
Links
Donate
Help keep this website running!
PayPal
Bitcoin
METAR
LICR 221950Z 07003KT CAVOK 19/11 Q1022
Current Weather Conditions at LICR
VFR 19:50:00 22-09-17
Altimeter:30.18 hg
Temp:19.0°c 66°f
Dew point:11.0°c 52°f
Wind:3 knots, 3.5 mph, 2 m/s, from 70°
Visibility:6.21 statute miles
(CAVOK)
Past METAR reports
VFR 18:50:00 22-09-17
Altimeter:30.18 hg
Temp:20.0°c 68°f
Dew point:11.0°c 52°f
Wind:3 knots, 3.5 mph, 2 m/s, from 100°
Visibility:6.21 statute miles
(CAVOK)
LICR 221850Z 10003KT 060V120 CAVOK 20/11 Q1022
VFR 17:50:00 22-09-17
Altimeter:30.15 hg
Temp:20.0°c 68°f
Dew point:11.0°c 52°f
Wind:4 knots, 4.6 mph, 2 m/s, from 130°
Visibility:6.21 statute miles
(CAVOK)
LICR 221750Z 13004KT CAVOK 20/11 Q1021
VFR 16:50:00 22-09-17
Altimeter:30.15 hg
Temp:21.0°c 70°f
Dew point:12.0°c 54°f
Wind:7 knots, 8.1 mph, 4 m/s, from 350°
Visibility:6.21 statute miles
(CAVOK)
LICR 221650Z 35007KT CAVOK 21/12 Q1021
VFR 15:50:00 22-09-17
Altimeter:30.15 hg
Temp:22.0°c 72°f
Dew point:12.0°c 54°f
Wind:6 knots, 6.9 mph, 3 m/s, from 270°
Visibility:6.21 statute miles
(CAVOK)
LICR 221550Z 27006KT 250V330 CAVOK 22/12 Q1021
VFR 14:50:00 22-09-17
Altimeter:30.15 hg
Temp:23.0°c 73°f
Dew point:9.0°c 48°f
Wind:4 knots, 4.6 mph, 2 m/s, from 250°
Visibility:6.21 statute miles
(CAVOK)
LICR 221450Z 25004KT 220V280 CAVOK 23/09 Q1021
TAF
TAF LICR 221700Z 2218/2318 VRB05KT CAVOK BECMG 2308/2310 18010KT
Forecast at LICR
18:00 22-09-17 to 08:00 23-09-17
NSW
Wind:5 Knots from 360°
Visibility:6.21 statute miles
NSC
BECMG 08:00 23-09-17 to 18:00 23-09-17
NSW
Wind:10 Knots from 180°
Visibility:6.21 statute miles
NSC